^^
Station Historical Data
Daily Summary for February 3, 2017 Units:  Both    English   Metric
« Previous Day
Next Day »
Daily Weekly Monthly Yearly Custom
  High: Low: Average:
Temperature: 80.8 °F /  27.1 °C 62.4 °F /  16.9 °C 68.9 °F /  20.5 °C
Dew Point: 63.3 °F /  17.4 °C 56.5 °F /  13.6 °C 59.6 °F /  15.3 °C
Humidity: 87% 45% 74%
Wind Speed: 8.9mph /  14.3km/h - 1.8mph /  2.9km/h
Wind Gust: 14.0mph /  22.5km/h - -
Wind- - SE
Pressure: 29.78 in /  1008.4 hPa 29.67 in /  1004.6 hPa -
Precipitation: 0.15 in /  3.81 mm    
Historical Graphs
 
 
Tabular Data for February 3, 2017
Time Temperature Dew Point Pressure Wind Wind Speed Wind Gust Humidity Rainfall Rate (Hourly) solar Conditions
00:04 66.9 °F /  19.4 °C 59.5 °F /  15.3 °C 29.73in /  1006.7hPa SE 2.0mph /  3.2km/h 7.0mph /  11.3km/h 77% 0.00in /  0mm 0.0 W/m2
00:10 66.7 °F /  19.3 °C 59.4 °F /  15.2 °C 29.73in /  1006.7hPa SE 2.9mph /  4.7km/h 7.0mph /  11.3km/h 77% 0.00in /  0mm 0.0 W/m2
00:16 66.7 °F /  19.3 °C 59.7 °F /  15.4 °C 29.73in /  1006.7hPa SSE 4.0mph /  6.4km/h 8.0mph /  12.9km/h 78% 0.00in /  0mm 0.0 W/m2
00:23 66.6 °F /  19.2 °C 59.5 °F /  15.3 °C 29.73in /  1006.7hPa SE 6.9mph /  11.1km/h 8.0mph /  12.9km/h 78% 0.00in /  0mm 0.0 W/m2
00:29 66.6 °F /  19.2 °C 59.5 °F /  15.3 °C 29.73in /  1006.7hPa ESE 4.0mph /  6.4km/h 5.0mph /  8km/h 78% 0.00in /  0mm 0.0 W/m2
00:35 66.4 °F /  19.1 °C 59.7 °F /  15.4 °C 29.73in /  1006.7hPa SSE 6.0mph /  9.7km/h 6.0mph /  9.7km/h 79% 0.00in /  0mm 0.0 W/m2
00:41 66.4 °F /  19.1 °C 59.4 °F /  15.2 °C 29.73in /  1006.7hPa South 2.0mph /  3.2km/h 5.0mph /  8km/h 78% 0.00in /  0mm 0.0 W/m2
00:47 66.4 °F /  19.1 °C 59.7 °F /  15.4 °C 29.74in /  1007hPa SSE 2.9mph /  4.7km/h 8.0mph /  12.9km/h 79% 0.00in /  0mm 0.0 W/m2
00:53 66.4 °F /  19.1 °C 59.4 °F /  15.2 °C 29.74in /  1007hPa SSW 6.9mph /  11.1km/h 9.0mph /  14.5km/h 78% 0.00in /  0mm 0.0 W/m2
00:59 66.4 °F /  19.1 °C 59.4 °F /  15.2 °C 29.74in /  1007hPa SSE 6.9mph /  11.1km/h 7.0mph /  11.3km/h 78% 0.00in /  0mm 0.0 W/m2
01:05 66.4 °F /  19.1 °C 59.4 °F /  15.2 °C 29.74in /  1007hPa SE 0.9mph /  1.4km/h 6.0mph /  9.7km/h 78% 0.00in /  0mm 0.0 W/m2
01:11 66.6 °F /  19.2 °C 59.5 °F /  15.3 °C 29.74in /  1007hPa ESE 0.9mph /  1.4km/h 3.0mph /  4.8km/h 78% 0.00in /  0mm 0.0 W/m2
01:17 66.6 °F /  19.2 °C 59.5 °F /  15.3 °C 29.74in /  1007hPa East 0.9mph /  1.4km/h 7.0mph /  11.3km/h 78% 0.00in /  0mm 0.0 W/m2
01:23 66.6 °F /  19.2 °C 59.5 °F /  15.3 °C 29.74in /  1007hPa SE 0.9mph /  1.4km/h 4.0mph /  6.4km/h 78% 0.00in /  0mm 0.0 W/m2
01:29 66.4 °F /  19.1 °C 59.4 °F /  15.2 °C 29.74in /  1007hPa Calm   1.0mph /  1.6km/h 78% 0.00in /  0mm 0.0 W/m2
01:35 66.4 °F /  19.1 °C 59.4 °F /  15.2 °C 29.74in /  1007hPa SE 0.9mph /  1.4km/h 3.0mph /  4.8km/h 78% 0.00in /  0mm 0.0 W/m2
01:41 66.2 °F /  19 °C 59.2 °F /  15.1 °C 29.73in /  1006.7hPa SSE 4.9mph /  7.9km/h 5.0mph /  8km/h 78% 0.00in /  0mm 0.0 W/m2
01:48 66.2 °F /  19 °C 58.8 °F /  14.9 °C 29.73in /  1006.7hPa ESE 0.9mph /  1.4km/h 10.0mph /  16.1km/h 77% 0.00in /  0mm 0.0 W/m2
01:54 66.2 °F /  19 °C 58.8 °F /  14.9 °C 29.73in /  1006.7hPa SE 4.9mph /  7.9km/h 8.0mph /  12.9km/h 77% 0.00in /  0mm 0.0 W/m2
02:00 66.4 °F /  19.1 °C 59.0 °F /  15 °C 29.73in /  1006.7hPa SE 4.0mph /  6.4km/h 8.0mph /  12.9km/h 77% 0.00in /  0mm 0.0 W/m2
02:06 66.4 °F /  19.1 °C 59.4 °F /  15.2 °C 29.73in /  1006.7hPa SE 0.9mph /  1.4km/h 5.0mph /  8km/h 78% 0.00in /  0mm 0.0 W/m2
02:12 66.4 °F /  19.1 °C 59.4 °F /  15.2 °C 29.73in /  1006.7hPa ESE 2.0mph /  3.2km/h 7.0mph /  11.3km/h 78% 0.00in /  0mm 0.0 W/m2
02:18 66.4 °F /  19.1 °C 59.7 °F /  15.4 °C 29.72in /  1006.3hPa South 4.0mph /  6.4km/h 8.0mph /  12.9km/h 79% 0.00in /  0mm 0.0 W/m2
02:24 66.2 °F /  19 °C 59.5 °F /  15.3 °C 29.72in /  1006.3hPa SE 0.9mph /  1.4km/h 8.0mph /  12.9km/h 79% 0.00in /  0mm 0.0 W/m2
02:30 66.0 °F /  18.9 °C 59.7 °F /  15.4 °C 29.72in /  1006.3hPa South 0.9mph /  1.4km/h 4.0mph /  6.4km/h 80% 0.00in /  0mm 0.0 W/m2
02:36 66.0 °F /  18.9 °C 59.7 °F /  15.4 °C 29.72in /  1006.3hPa SE 0.9mph /  1.4km/h 4.0mph /  6.4km/h 80% 0.00in /  0mm 0.0 W/m2
02:42 65.8 °F /  18.8 °C 59.5 °F /  15.3 °C 29.72in /  1006.3hPa Calm   6.0mph /  9.7km/h 80% 0.00in /  0mm 0.0 W/m2
02:48 65.7 °F /  18.7 °C 59.7 °F /  15.4 °C 29.72in /  1006.3hPa SE 2.9mph /  4.7km/h 8.0mph /  12.9km/h 81% 0.00in /  0mm 0.0 W/m2
02:55 65.5 °F /  18.6 °C 59.5 °F /  15.3 °C 29.71in /  1006hPa SE 4.9mph /  7.9km/h 6.0mph /  9.7km/h 81% 0.00in /  0mm 0.0 W/m2
03:01 65.5 °F /  18.6 °C 59.5 °F /  15.3 °C 29.72in /  1006.3hPa SE 2.0mph /  3.2km/h 8.0mph /  12.9km/h 81% 0.00in /  0mm 0.0 W/m2
03:07 65.1 °F /  18.4 °C 59.2 °F /  15.1 °C 29.72in /  1006.3hPa SSE 2.9mph /  4.7km/h 6.0mph /  9.7km/h 81% 0.00in /  0mm 0.0 W/m2
03:13 65.1 °F /  18.4 °C 59.2 °F /  15.1 °C 29.71in /  1006hPa ESE 2.9mph /  4.7km/h 6.0mph /  9.7km/h 81% 0.00in /  0mm 0.0 W/m2
03:19 65.1 °F /  18.4 °C 59.2 °F /  15.1 °C 29.71in /  1006hPa SE 4.9mph /  7.9km/h 7.0mph /  11.3km/h 81% 0.00in /  0mm 0.0 W/m2
03:25 64.9 °F /  18.3 °C 59.0 °F /  15 °C 29.71in /  1006hPa SE 2.0mph /  3.2km/h 4.0mph /  6.4km/h 81% 0.00in /  0mm 0.0 W/m2
03:31 64.9 °F /  18.3 °C 59.0 °F /  15 °C 29.71in /  1006hPa South 2.0mph /  3.2km/h 4.0mph /  6.4km/h 81% 0.00in /  0mm 0.0 W/m2
03:37 64.8 °F /  18.2 °C 59.2 °F /  15.1 °C 29.71in /  1006hPa SSE 2.0mph /  3.2km/h 6.0mph /  9.7km/h 82% 0.00in /  0mm 0.0 W/m2
03:44 64.8 °F /  18.2 °C 59.2 °F /  15.1 °C 29.72in /  1006.3hPa Calm   3.0mph /  4.8km/h 82% 0.00in /  0mm 0.0 W/m2
03:50 64.6 °F /  18.1 °C 59.0 °F /  15 °C 29.72in /  1006.3hPa Calm   2.0mph /  3.2km/h 82% 0.00in /  0mm 0.0 W/m2
03:56 64.6 °F /  18.1 °C 59.0 °F /  15 °C 29.72in /  1006.3hPa Calm     82% 0.00in /  0mm 0.0 W/m2
04:02 64.4 °F /  18 °C 58.8 °F /  14.9 °C 29.72in /  1006.3hPa Calm     82% 0.00in /  0mm 0.0 W/m2
04:08 64.2 °F /  17.9 °C 59.0 °F /  15 °C 29.72in /  1006.3hPa Calm     83% 0.00in /  0mm 0.0 W/m2
04:14 64.0 °F /  17.8 °C 59.2 °F /  15.1 °C 29.72in /  1006.3hPa Calm     84% 0.00in /  0mm 0.0 W/m2
04:21 64.0 °F /  17.8 °C 59.2 °F /  15.1 °C 29.72in /  1006.3hPa Calm     84% 0.00in /  0mm 0.0 W/m2
04:26 63.9 °F /  17.7 °C 59.0 °F /  15 °C 29.72in /  1006.3hPa Calm     84% 0.00in /  0mm 0.0 W/m2
04:33 63.7 °F /  17.6 °C 58.8 °F /  14.9 °C 29.73in /  1006.7hPa Calm     84% 0.00in /  0mm 0.0 W/m2
04:39 63.5 °F /  17.5 °C 58.6 °F /  14.8 °C 29.73in /  1006.7hPa South 0.9mph /  1.4km/h 3.0mph /  4.8km/h 84% 0.00in /  0mm 0.0 W/m2
04:45 63.5 °F /  17.5 °C 58.3 °F /  14.6 °C 29.73in /  1006.7hPa Calm   2.0mph /  3.2km/h 83% 0.00in /  0mm 0.0 W/m2
04:51 63.5 °F /  17.5 °C 58.3 °F /  14.6 °C 29.73in /  1006.7hPa ESE 0.9mph /  1.4km/h 3.0mph /  4.8km/h 83% 0.00in /  0mm 0.0 W/m2
04:57 63.7 °F /  17.6 °C 58.8 °F /  14.9 °C 29.73in /  1006.7hPa East 0.9mph /  1.4km/h 4.0mph /  6.4km/h 84% 0.00in /  0mm 0.0 W/m2
05:03 63.7 °F /  17.6 °C 58.5 °F /  14.7 °C 29.73in /  1006.7hPa Calm   3.0mph /  4.8km/h 83% 0.00in /  0mm 0.0 W/m2
05:09 63.7 °F /  17.6 °C 58.5 °F /  14.7 °C 29.73in /  1006.7hPa Calm   1.0mph /  1.6km/h 83% 0.00in /  0mm 0.0 W/m2
05:16 63.7 °F /  17.6 °C 58.5 °F /  14.7 °C 29.74in /  1007hPa ESE 0.9mph /  1.4km/h 6.0mph /  9.7km/h 83% 0.00in /  0mm 0.0 W/m2
05:22 63.5 °F /  17.5 °C 58.3 °F /  14.6 °C 29.74in /  1007hPa Calm   3.0mph /  4.8km/h 83% 0.00in /  0mm 0.0 W/m2
05:28 63.3 °F /  17.4 °C 58.5 °F /  14.7 °C 29.74in /  1007hPa East 4.0mph /  6.4km/h 9.0mph /  14.5km/h 84% 0.00in /  0mm 0.0 W/m2
05:34 63.3 °F /  17.4 °C 58.1 °F /  14.5 °C 29.74in /  1007hPa ESE 4.9mph /  7.9km/h 8.0mph /  12.9km/h 83% 0.00in /  0mm 0.0 W/m2
05:40 63.3 °F /  17.4 °C 58.1 °F /  14.5 °C 29.74in /  1007hPa ESE 2.9mph /  4.7km/h 5.0mph /  8km/h 83% 0.00in /  0mm 0.0 W/m2
05:47 63.3 °F /  17.4 °C 58.1 °F /  14.5 °C 29.74in /  1007hPa SSE 4.9mph /  7.9km/h 6.0mph /  9.7km/h 83% 0.00in /  0mm 0.0 W/m2
05:52 63.1 °F /  17.3 °C 57.9 °F /  14.4 °C 29.74in /  1007hPa NNE 2.0mph /  3.2km/h 8.0mph /  12.9km/h 83% 0.00in /  0mm 0.0 W/m2
05:59 63.1 °F /  17.3 °C 58.3 °F /  14.6 °C 29.74in /  1007hPa South 0.9mph /  1.4km/h 3.0mph /  4.8km/h 84% 0.00in /  0mm 0.0 W/m2
06:07 63.0 °F /  17.2 °C 58.5 °F /  14.7 °C 29.74in /  1007hPa East 2.9mph /  4.7km/h 5.0mph /  8km/h 85% 0.00in /  0mm 0.0 W/m2
06:12 63.0 °F /  17.2 °C 58.5 °F /  14.7 °C 29.74in /  1007hPa East 0.9mph /  1.4km/h 4.0mph /  6.4km/h 85% 0.00in /  0mm 0.0 W/m2
06:19 62.8 °F /  17.1 °C 58.3 °F /  14.6 °C 29.74in /  1007hPa Calm   4.0mph /  6.4km/h 85% 0.00in /  0mm 0.0 W/m2
06:25 62.8 °F /  17.1 °C 58.3 °F /  14.6 °C 29.74in /  1007hPa ENE 4.0mph /  6.4km/h 5.0mph /  8km/h 85% 0.00in /  0mm 0.0 W/m2
06:31 62.6 °F /  17 °C 58.3 °F /  14.6 °C 29.74in /  1007hPa East 0.9mph /  1.4km/h 2.0mph /  3.2km/h 86% 0.00in /  0mm 0.0 W/m2
06:37 62.4 °F /  16.9 °C 58.1 °F /  14.5 °C 29.75in /  1007.3hPa ESE 2.0mph /  3.2km/h 5.0mph /  8km/h 86% 0.00in /  0mm 11.0 W/m2
06:44 62.4 °F /  16.9 °C 58.5 °F /  14.7 °C 29.75in /  1007.3hPa Calm   3.0mph /  4.8km/h 87% 0.00in /  0mm 16.0 W/m2
06:50 62.4 °F /  16.9 °C 58.5 °F /  14.7 °C 29.75in /  1007.3hPa Calm   5.0mph /  8km/h 87% 0.00in /  0mm 23.0 W/m2
06:56 62.4 °F /  16.9 °C 58.5 °F /  14.7 °C 29.75in /  1007.3hPa Calm   3.0mph /  4.8km/h 87% 0.00in /  0mm 32.0 W/m2
07:02 62.6 °F /  17 °C 58.3 °F /  14.6 °C 29.75in /  1007.3hPa NNE 0.9mph /  1.4km/h 3.0mph /  4.8km/h 86% 0.00in /  0mm 40.0 W/m2
07:08 62.8 °F /  17.1 °C 58.5 °F /  14.7 °C 29.76in /  1007.7hPa East 0.9mph /  1.4km/h 4.0mph /  6.4km/h 86% 0.00in /  0mm 44.0 W/m2
07:14 62.8 °F /  17.1 °C 58.3 °F /  14.6 °C 29.76in /  1007.7hPa Calm   3.0mph /  4.8km/h 85% 0.00in /  0mm 47.0 W/m2
07:20 63.1 °F /  17.3 °C 58.3 °F /  14.6 °C 29.76in /  1007.7hPa SE 2.9mph /  4.7km/h 4.0mph /  6.4km/h 84% 0.00in /  0mm 37.0 W/m2
07:26 63.3 °F /  17.4 °C 58.1 °F /  14.5 °C 29.76in /  1007.7hPa Calm   4.0mph /  6.4km/h 83% 0.00in /  0mm 35.0 W/m2
07:33 63.9 °F /  17.7 °C 58.6 °F /  14.8 °C 29.76in /  1007.7hPa Calm   1.0mph /  1.6km/h 83% 0.00in /  0mm 42.0 W/m2
07:39 64.0 °F /  17.8 °C 59.2 °F /  15.1 °C 29.76in /  1007.7hPa Calm   2.0mph /  3.2km/h 84% 0.00in /  0mm 46.0 W/m2
07:45 64.2 °F /  17.9 °C 59.0 °F /  15 °C 29.76in /  1007.7hPa Calm   1.0mph /  1.6km/h 83% 0.00in /  0mm 32.0 W/m2
07:51 64.6 °F /  18.1 °C 59.4 °F /  15.2 °C 29.76in /  1007.7hPa NE 0.9mph /  1.4km/h 4.0mph /  6.4km/h 83% 0.00in /  0mm 58.0 W/m2
07:57 64.8 °F /  18.2 °C 59.5 °F /  15.3 °C 29.76in /  1007.7hPa Calm   2.0mph /  3.2km/h 83% 0.00in /  0mm 37.0 W/m2
08:03 65.1 °F /  18.4 °C 59.2 °F /  15.1 °C 29.76in /  1007.7hPa Calm   3.0mph /  4.8km/h 81% 0.00in /  0mm 40.0 W/m2
08:09 65.5 °F /  18.6 °C 59.2 °F /  15.1 °C 29.77in /  1008hPa ESE 2.0mph /  3.2km/h 4.0mph /  6.4km/h 80% 0.00in /  0mm 209.0 W/m2
08:15 65.8 °F /  18.8 °C 58.8 °F /  14.9 °C 29.77in /  1008hPa SE 2.0mph /  3.2km/h 4.0mph /  6.4km/h 78% 0.00in /  0mm 373.0 W/m2
08:22 66.4 °F /  19.1 °C 59.0 °F /  15 °C 29.76in /  1007.7hPa NE 4.0mph /  6.4km/h 6.0mph /  9.7km/h 77% 0.00in /  0mm 330.0 W/m2
08:28 66.9 °F /  19.4 °C 59.2 °F /  15.1 °C 29.77in /  1008hPa NNE 4.0mph /  6.4km/h 8.0mph /  12.9km/h 76% 0.00in /  0mm 455.0 W/m2
08:34 67.5 °F /  19.7 °C 58.5 °F /  14.7 °C 29.76in /  1007.7hPa Calm   5.0mph /  8km/h 73% 0.00in /  0mm 459.0 W/m2
08:40 68.2 °F /  20.1 °C 58.5 °F /  14.7 °C 29.77in /  1008hPa ESE 6.0mph /  9.7km/h 8.0mph /  12.9km/h 71% 0.00in /  0mm 497.0 W/m2
08:46 69.3 °F /  20.7 °C 58.6 °F /  14.8 °C 29.77in /  1008hPa SE 2.0mph /  3.2km/h 7.0mph /  11.3km/h 69% 0.00in /  0mm 497.0 W/m2
08:52 70.0 °F /  21.1 °C 58.5 °F /  14.7 °C 29.77in /  1008hPa NE 2.0mph /  3.2km/h 5.0mph /  8km/h 67% 0.00in /  0mm 522.0 W/m2
08:58 70.9 °F /  21.6 °C 59.4 °F /  15.2 °C 29.77in /  1008hPa Calm   6.0mph /  9.7km/h 67% 0.00in /  0mm 547.0 W/m2
09:05 71.4 °F /  21.9 °C 59.9 °F /  15.5 °C 29.77in /  1008hPa East 2.0mph /  3.2km/h 8.0mph /  12.9km/h 67% 0.00in /  0mm 494.0 W/m2
09:11 71.8 °F /  22.1 °C 59.4 °F /  15.2 °C 29.77in /  1008hPa NNE 4.9mph /  7.9km/h 12.0mph /  19.3km/h 65% 0.00in /  0mm 503.0 W/m2
09:17 71.8 °F /  22.1 °C 60.3 °F /  15.7 °C 29.77in /  1008hPa NE 6.0mph /  9.7km/h 7.0mph /  11.3km/h 67% 0.00in /  0mm 425.0 W/m2
09:23 71.8 °F /  22.1 °C 59.7 °F /  15.4 °C 29.77in /  1008hPa ENE 4.0mph /  6.4km/h 8.0mph /  12.9km/h 66% 0.00in /  0mm 717.0 W/m2
09:29 72.1 °F /  22.3 °C 60.1 °F /  15.6 °C 29.77in /  1008hPa NE 0.9mph /  1.4km/h 8.0mph /  12.9km/h 66% 0.00in /  0mm 698.0 W/m2
09:35 72.7 °F /  22.6 °C 59.7 °F /  15.4 °C 29.77in /  1008hPa East 0.9mph /  1.4km/h 8.0mph /  12.9km/h 64% 0.00in /  0mm 664.0 W/m2
09:41 72.9 °F /  22.7 °C 59.9 °F /  15.5 °C 29.77in /  1008hPa ESE 2.0mph /  3.2km/h 7.0mph /  11.3km/h 64% 0.00in /  0mm 626.0 W/m2
09:47 72.9 °F /  22.7 °C 59.5 °F /  15.3 °C 29.77in /  1008hPa ENE 8.1mph /  13km/h 10.0mph /  16.1km/h 63% 0.00in /  0mm 650.0 W/m2
09:53 72.5 °F /  22.5 °C 59.2 °F /  15.1 °C 29.77in /  1008hPa SE 6.9mph /  11.1km/h 10.0mph /  16.1km/h 63% 0.00in /  0mm 492.0 W/m2
10:00 72.1 °F /  22.3 °C 59.4 °F /  15.2 °C 29.77in /  1008hPa ENE 2.0mph /  3.2km/h 7.0mph /  11.3km/h 64% 0.00in /  0mm 605.0 W/m2
10:06 72.5 °F /  22.5 °C 59.5 °F /  15.3 °C 29.78in /  1008.4hPa East 8.9mph /  14.3km/h 11.0mph /  17.7km/h 64% 0.00in /  0mm 561.0 W/m2
10:12 72.3 °F /  22.4 °C 59.0 °F /  15 °C 29.77in /  1008hPa East 2.0mph /  3.2km/h 11.0mph /  17.7km/h 63% 0.00in /  0mm 570.0 W/m2
10:18 72.7 °F /  22.6 °C 58.8 °F /  14.9 °C 29.77in /  1008hPa ENE 2.9mph /  4.7km/h 10.0mph /  16.1km/h 62% 0.00in /  0mm 738.0 W/m2
10:24 72.7 °F /  22.6 °C 59.4 °F /  15.2 °C 29.77in /  1008hPa NE 4.0mph /  6.4km/h 9.0mph /  14.5km/h 63% 0.00in /  0mm 582.0 W/m2
10:30 73.2 °F /  22.9 °C 59.9 °F /  15.5 °C 29.77in /  1008hPa ENE 0.9mph /  1.4km/h 12.0mph /  19.3km/h 63% 0.00in /  0mm 705.0 W/m2
10:36 73.8 °F /  23.2 °C 59.5 °F /  15.3 °C 29.77in /  1008hPa South 0.9mph /  1.4km/h 9.0mph /  14.5km/h 61% 0.00in /  0mm 851.0 W/m2
10:43 74.7 °F /  23.7 °C 60.3 °F /  15.7 °C 29.77in /  1008hPa NNE 0.9mph /  1.4km/h 9.0mph /  14.5km/h 61% 0.00in /  0mm 925.0 W/m2
10:49 75.4 °F /  24.1 °C 60.4 °F /  15.8 °C 29.77in /  1008hPa NE 8.1mph /  13km/h 14.0mph /  22.5km/h 60% 0.00in /  0mm 909.0 W/m2
10:55 75.7 °F /  24.3 °C 59.9 °F /  15.5 °C 29.77in /  1008hPa NE 2.9mph /  4.7km/h 8.0mph /  12.9km/h 58% 0.00in /  0mm 540.0 W/m2
11:01 75.7 °F /  24.3 °C 59.4 °F /  15.2 °C 29.77in /  1008hPa NNE 4.0mph /  6.4km/h 9.0mph /  14.5km/h 57% 0.00in /  0mm 612.0 W/m2
11:07 76.3 °F /  24.6 °C 59.0 °F /  15 °C 29.77in /  1008hPa Calm   9.0mph /  14.5km/h 55% 0.00in /  0mm 805.0 W/m2
11:13 76.6 °F /  24.8 °C 59.2 °F /  15.1 °C 29.76in /  1007.7hPa ENE 4.9mph /  7.9km/h 9.0mph /  14.5km/h 55% 0.00in /  0mm 1088.0 W/m2
11:19 77.0 °F /  25 °C 59.5 °F /  15.3 °C 29.76in /  1007.7hPa NE 6.9mph /  11.1km/h 7.0mph /  11.3km/h 55% 0.00in /  0mm 1095.0 W/m2
11:25 77.4 °F /  25.2 °C 58.8 °F /  14.9 °C 29.76in /  1007.7hPa NNE 0.9mph /  1.4km/h 8.0mph /  12.9km/h 53% 0.00in /  0mm 1023.0 W/m2
11:31 77.7 °F /  25.4 °C 59.7 °F /  15.4 °C 29.75in /  1007.3hPa East 0.9mph /  1.4km/h 5.0mph /  8km/h 54% 0.00in /  0mm 1195.0 W/m2
11:38 78.3 °F /  25.7 °C 59.2 °F /  15.1 °C 29.75in /  1007.3hPa NE 4.0mph /  6.4km/h 9.0mph /  14.5km/h 52% 0.00in /  0mm 705.0 W/m2
11:44 78.1 °F /  25.6 °C 59.5 °F /  15.3 °C 29.75in /  1007.3hPa ENE 2.9mph /  4.7km/h 11.0mph /  17.7km/h 53% 0.00in /  0mm 842.0 W/m2
11:50 78.3 °F /  25.7 °C 59.2 °F /  15.1 °C 29.75in /  1007.3hPa Calm   10.0mph /  16.1km/h 52% 0.00in /  0mm 1285.0 W/m2
11:56 78.1 °F /  25.6 °C 59.5 °F /  15.3 °C 29.75in /  1007.3hPa NNE 6.0mph /  9.7km/h 9.0mph /  14.5km/h 53% 0.00in /  0mm 724.0 W/m2
12:04 78.1 °F /  25.6 °C 58.5 °F /  14.7 °C 29.74in /  1007hPa ENE 2.9mph /  4.7km/h 7.0mph /  11.3km/h 51% 0.00in /  0mm 673.0 W/m2
12:10 78.3 °F /  25.7 °C 57.6 °F /  14.2 °C 29.74in /  1007hPa East 8.1mph /  13km/h 13.0mph /  20.9km/h 49% 0.00in /  0mm 1278.0 W/m2
12:16 78.4 °F /  25.8 °C 57.2 °F /  14 °C 29.74in /  1007hPa NNE 8.9mph /  14.3km/h 9.0mph /  14.5km/h 48% 0.00in /  0mm 1262.0 W/m2
12:22 78.3 °F /  25.7 °C 57.0 °F /  13.9 °C 29.74in /  1007hPa NE 4.0mph /  6.4km/h 8.0mph /  12.9km/h 48% 0.00in /  0mm 519.0 W/m2
12:29 78.1 °F /  25.6 °C 57.9 °F /  14.4 °C 29.74in /  1007hPa ENE 4.0mph /  6.4km/h 12.0mph /  19.3km/h 50% 0.00in /  0mm 381.0 W/m2
12:35 78.3 °F /  25.7 °C 58.1 °F /  14.5 °C 29.74in /  1007hPa SSE 4.0mph /  6.4km/h 7.0mph /  11.3km/h 50% 0.00in /  0mm 1262.0 W/m2
12:41 79.2 °F /  26.2 °C 58.3 °F /  14.6 °C 29.73in /  1006.7hPa SE 4.9mph /  7.9km/h 7.0mph /  11.3km/h 49% 0.00in /  0mm 1361.0 W/m2
12:47 79.7 °F /  26.5 °C 57.0 °F /  13.9 °C 29.73in /  1006.7hPa East 4.0mph /  6.4km/h 7.0mph /  11.3km/h 46% 0.00in /  0mm 545.0 W/m2
12:53 80.1 °F /  26.7 °C 58.1 °F /  14.5 °C 29.73in /  1006.7hPa NNW 4.0mph /  6.4km/h 10.0mph /  16.1km/h 47% 0.00in /  0mm 526.0 W/m2
12:59 80.8 °F /  27.1 °C 58.6 °F /  14.8 °C 29.73in /  1006.7hPa NE 2.9mph /  4.7km/h 8.0mph /  12.9km/h 47% 0.00in /  0mm 617.0 W/m2
13:05 80.8 °F /  27.1 °C 57.4 °F /  14.1 °C 29.73in /  1006.7hPa ENE 6.9mph /  11.1km/h 9.0mph /  14.5km/h 45% 0.00in /  0mm 939.0 W/m2
13:11 80.2 °F /  26.8 °C 57.6 °F /  14.2 °C 29.73in /  1006.7hPa NE 4.9mph /  7.9km/h 7.0mph /  11.3km/h 46% 0.00in /  0mm 322.0 W/m2
13:18 79.5 °F /  26.4 °C 57.6 °F /  14.2 °C 29.73in /  1006.7hPa NE 4.9mph /  7.9km/h 12.0mph /  19.3km/h 47% 0.00in /  0mm 559.0 W/m2
13:24 79.3 °F /  26.3 °C 57.4 °F /  14.1 °C 29.72in /  1006.3hPa ESE 2.9mph /  4.7km/h 9.0mph /  14.5km/h 47% 0.00in /  0mm 686.0 W/m2
13:30 79.5 °F /  26.4 °C 56.8 °F /  13.8 °C 29.72in /  1006.3hPa ENE 6.0mph /  9.7km/h 11.0mph /  17.7km/h 46% 0.00in /  0mm 534.0 W/m2
13:36 79.5 °F /  26.4 °C 57.6 °F /  14.2 °C 29.72in /  1006.3hPa SSE 2.0mph /  3.2km/h 10.0mph /  16.1km/h 47% 0.00in /  0mm 381.0 W/m2
13:42 79.3 °F /  26.3 °C 57.9 °F /  14.4 °C 29.72in /  1006.3hPa East 2.0mph /  3.2km/h 6.0mph /  9.7km/h 48% 0.00in /  0mm 413.0 W/m2
13:48 79.2 °F /  26.2 °C 57.2 °F /  14 °C 29.72in /  1006.3hPa ENE 4.9mph /  7.9km/h 6.0mph /  9.7km/h 47% 0.00in /  0mm 323.0 W/m2
13:54 78.6 °F /  25.9 °C 57.2 °F /  14 °C 29.72in /  1006.3hPa NE 2.9mph /  4.7km/h 7.0mph /  11.3km/h 48% 0.00in /  0mm 272.0 W/m2
14:01 78.4 °F /  25.8 °C 56.5 °F /  13.6 °C 29.72in /  1006.3hPa NNE 4.9mph /  7.9km/h 6.0mph /  9.7km/h 47% 0.00in /  0mm 292.0 W/m2
14:07 78.3 °F /  25.7 °C 59.2 °F /  15.1 °C 29.71in /  1006hPa SSE 2.0mph /  3.2km/h 4.0mph /  6.4km/h 52% 0.00in /  0mm 410.0 W/m2
14:13 77.9 °F /  25.5 °C 57.7 °F /  14.3 °C 29.71in /  1006hPa SE 2.9mph /  4.7km/h 6.0mph /  9.7km/h 50% 0.00in /  0mm 538.0 W/m2
14:19 78.3 °F /  25.7 °C 57.6 °F /  14.2 °C 29.70in /  1005.6hPa Calm   4.0mph /  6.4km/h 49% 0.00in /  0mm 480.0 W/m2
14:25 79.0 °F /  26.1 °C 58.1 °F /  14.5 °C 29.70in /  1005.6hPa Calm   2.0mph /  3.2km/h 49% 0.00in /  0mm 469.0 W/m2
14:31 79.3 °F /  26.3 °C 57.4 °F /  14.1 °C 29.70in /  1005.6hPa NE 0.9mph /  1.4km/h 4.0mph /  6.4km/h 47% 0.00in /  0mm 445.0 W/m2
14:37 79.7 °F /  26.5 °C 57.7 °F /  14.3 °C 29.70in /  1005.6hPa NNW 0.9mph /  1.4km/h 2.0mph /  3.2km/h 47% 0.00in /  0mm 364.0 W/m2
14:43 79.9 °F /  26.6 °C 57.2 °F /  14 °C 29.70in /  1005.6hPa SW 0.9mph /  1.4km/h 3.0mph /  4.8km/h 46% 0.00in /  0mm 302.0 W/m2
14:50 79.5 °F /  26.4 °C 56.8 °F /  13.8 °C 29.70in /  1005.6hPa East 0.9mph /  1.4km/h 7.0mph /  11.3km/h 46% 0.00in /  0mm 107.0 W/m2
14:58 79.0 °F /  26.1 °C 56.5 °F /  13.6 °C 29.69in /  1005.3hPa Calm   2.0mph /  3.2km/h 46% 0.00in /  0mm 49.0 W/m2
15:00 79.0 °F /  26.1 °C 57.0 °F /  13.9 °C 29.69in /  1005.3hPa NNE 0.9mph /  1.4km/h 1.0mph /  1.6km/h 47% 0.00in /  0mm 51.0 W/m2
15:06 78.4 °F /  25.8 °C 59.4 °F /  15.2 °C 29.69in /  1005.3hPa North 0.9mph /  1.4km/h 3.0mph /  4.8km/h 52% 0.00in /  0mm 65.0 W/m2
15:12 77.7 °F /  25.4 °C 62.8 °F /  17.1 °C 29.70in /  1005.6hPa Calm   1.0mph /  1.6km/h 60% 0.01in /  0.25mm 72.0 W/m2
15:18 75.9 °F /  24.4 °C 63.3 °F /  17.4 °C 29.69in /  1005.3hPa Calm   2.0mph /  3.2km/h 65% 0.02in /  0.51mm 79.0 W/m2
15:24 73.9 °F /  23.3 °C 62.8 °F /  17.1 °C 29.70in /  1005.6hPa WSW 2.9mph /  4.7km/h 4.0mph /  6.4km/h 68% 0.06in /  1.52mm 63.0 W/m2
15:30 72.0 °F /  22.2 °C 63.1 °F /  17.3 °C 29.69in /  1005.3hPa NE 2.0mph /  3.2km/h 4.0mph /  6.4km/h 74% 0.13in /  3.3mm 83.0 W/m2
15:37 69.6 °F /  20.9 °C 61.7 °F /  16.5 °C 29.68in /  1005hPa NE 4.0mph /  6.4km/h 8.0mph /  12.9km/h 76% 0.15in /  3.81mm 118.0 W/m2
15:43 68.5 °F /  20.3 °C 61.3 °F /  16.3 °C 29.68in /  1005hPa NE 2.0mph /  3.2km/h 7.0mph /  11.3km/h 78% 0.15in /  3.81mm 116.0 W/m2
15:51 67.8 °F /  19.9 °C 62.1 °F /  16.7 °C 29.67in /  1004.6hPa NNW 0.9mph /  1.4km/h 3.0mph /  4.8km/h 82% 0.15in /  3.81mm 114.0 W/m2
15:57 67.6 °F /  19.8 °C 63.0 °F /  17.2 °C 29.68in /  1005hPa Calm   1.0mph /  1.6km/h 85% 0.15in /  3.81mm 118.0 W/m2
16:03 67.6 °F /  19.8 °C 63.0 °F /  17.2 °C 29.68in /  1005hPa WNW 2.0mph /  3.2km/h 5.0mph /  8km/h 85% 0.15in /  3.81mm 120.0 W/m2
16:09 67.6 °F /  19.8 °C 63.0 °F /  17.2 °C 29.68in /  1005hPa NW 2.9mph /  4.7km/h 5.0mph /  8km/h 85% 0.14in /  3.56mm 118.0 W/m2
16:15 67.8 °F /  19.9 °C 62.8 °F /  17.1 °C 29.68in /  1005hPa NW 0.9mph /  1.4km/h 4.0mph /  6.4km/h 84% 0.13in /  3.3mm 111.0 W/m2
16:21 67.8 °F /  19.9 °C 62.1 °F /  16.7 °C 29.68in /  1005hPa Calm   4.0mph /  6.4km/h 82% 0.11in /  2.79mm 105.0 W/m2
16:28 67.8 °F /  19.9 °C 62.1 °F /  16.7 °C 29.68in /  1005hPa Calm   1.0mph /  1.6km/h 82% 0.04in /  1.02mm 100.0 W/m2
16:34 67.8 °F /  19.9 °C 61.7 °F /  16.5 °C 29.67in /  1004.6hPa Calm   1.0mph /  1.6km/h 81% 0.00in /  0mm 97.0 W/m2
16:40 67.8 °F /  19.9 °C 61.7 °F /  16.5 °C 29.67in /  1004.6hPa Calm   1.0mph /  1.6km/h 81% 0.00in /  0mm 95.0 W/m2
16:46 67.8 °F /  19.9 °C 62.1 °F /  16.7 °C 29.67in /  1004.6hPa NNW 2.0mph /  3.2km/h 5.0mph /  8km/h 82% 0.00in /  0mm 97.0 W/m2
16:51 67.6 °F /  19.8 °C 61.5 °F /  16.4 °C 29.67in /  1004.6hPa NW 6.9mph /  11.1km/h 9.0mph /  14.5km/h 81% 0.00in /  0mm 97.0 W/m2
16:56 67.3 °F /  19.6 °C 61.9 °F /  16.6 °C 29.68in /  1005hPa NNW 4.0mph /  6.4km/h 7.0mph /  11.3km/h 83% 0.00in /  0mm 98.0 W/m2
17:02 66.7 °F /  19.3 °C 61.7 °F /  16.5 °C 29.68in /  1005hPa NNE 4.9mph /  7.9km/h 5.0mph /  8km/h 84% 0.00in /  0mm 93.0 W/m2
17:08 66.6 °F /  19.2 °C 62.2 °F /  16.8 °C 29.68in /  1005hPa Calm   2.0mph /  3.2km/h 86% 0.00in /  0mm 86.0 W/m2
17:15 66.4 °F /  19.1 °C 62.1 °F /  16.7 °C 29.68in /  1005hPa Calm     86% 0.00in /  0mm 81.0 W/m2
17:21 66.4 °F /  19.1 °C 62.1 °F /  16.7 °C 29.68in /  1005hPa Calm   2.0mph /  3.2km/h 86% 0.00in /  0mm 81.0 W/m2
17:27 66.4 °F /  19.1 °C 62.1 °F /  16.7 °C 29.69in /  1005.3hPa North 0.9mph /  1.4km/h 4.0mph /  6.4km/h 86% 0.00in /  0mm 86.0 W/m2
17:33 66.2 °F /  19 °C 61.2 °F /  16.2 °C 29.69in /  1005.3hPa NNW 0.9mph /  1.4km/h 4.0mph /  6.4km/h 84% 0.00in /  0mm 95.0 W/m2
17:39 66.0 °F /  18.9 °C 61.0 °F /  16.1 °C 29.69in /  1005.3hPa NW 2.9mph /  4.7km/h 4.0mph /  6.4km/h 84% 0.00in /  0mm 97.0 W/m2
17:45 66.0 °F /  18.9 °C 61.3 °F /  16.3 °C 29.70in /  1005.6hPa NNE 2.0mph /  3.2km/h 5.0mph /  8km/h 85% 0.00in /  0mm 95.0 W/m2
17:51 66.0 °F /  18.9 °C 61.0 °F /  16.1 °C 29.70in /  1005.6hPa Calm   3.0mph /  4.8km/h 84% 0.00in /  0mm 98.0 W/m2
17:57 66.0 °F /  18.9 °C 61.0 °F /  16.1 °C 29.70in /  1005.6hPa NNE 4.0mph /  6.4km/h 4.0mph /  6.4km/h 84% 0.00in /  0mm 107.0 W/m2
18:03 66.0 °F /  18.9 °C 61.0 °F /  16.1 °C 29.70in /  1005.6hPa North 2.9mph /  4.7km/h 5.0mph /  8km/h 84% 0.00in /  0mm 109.0 W/m2
18:10 66.0 °F /  18.9 °C 61.0 °F /  16.1 °C 29.70in /  1005.6hPa NNW 2.0mph /  3.2km/h 6.0mph /  9.7km/h 84% 0.00in /  0mm 105.0 W/m2
18:16 66.0 °F /  18.9 °C 61.0 °F /  16.1 °C 29.70in /  1005.6hPa Calm   4.0mph /  6.4km/h 84% 0.00in /  0mm 102.0 W/m2
18:22 66.0 °F /  18.9 °C 61.0 °F /  16.1 °C 29.70in /  1005.6hPa Calm   1.0mph /  1.6km/h 84% 0.00in /  0mm 90.0 W/m2
18:28 66.0 °F /  18.9 °C 61.0 °F /  16.1 °C 29.70in /  1005.6hPa Calm   1.0mph /  1.6km/h 84% 0.00in /  0mm 77.0 W/m2
18:34 66.2 °F /  19 °C 60.8 °F /  16 °C 29.70in /  1005.6hPa Calm   1.0mph /  1.6km/h 83% 0.00in /  0mm 63.0 W/m2
18:40 66.4 °F /  19.1 °C 61.3 °F /  16.3 °C 29.70in /  1005.6hPa Calm   1.0mph /  1.6km/h 84% 0.00in /  0mm 60.0 W/m2
18:46 66.4 °F /  19.1 °C 61.0 °F /  16.1 °C 29.70in /  1005.6hPa Calm   1.0mph /  1.6km/h 83% 0.00in /  0mm 47.0 W/m2
18:53 66.4 °F /  19.1 °C 61.0 °F /  16.1 °C 29.70in /  1005.6hPa Calm   1.0mph /  1.6km/h 83% 0.00in /  0mm 32.0 W/m2
18:59 66.4 °F /  19.1 °C 60.8 °F /  16 °C 29.71in /  1006hPa Calm     82% 0.00in /  0mm 19.0 W/m2
19:05 66.4 °F /  19.1 °C 60.8 °F /  16 °C 29.70in /  1005.6hPa Calm     82% 0.00in /  0mm 14.0 W/m2
19:11 66.4 °F /  19.1 °C 61.0 °F /  16.1 °C 29.70in /  1005.6hPa Calm   2.0mph /  3.2km/h 83% 0.00in /  0mm 9.0 W/m2
19:17 66.4 °F /  19.1 °C 61.0 °F /  16.1 °C 29.70in /  1005.6hPa Calm   1.0mph /  1.6km/h 83% 0.00in /  0mm 5.0 W/m2
19:23 66.2 °F /  19 °C 60.8 °F /  16 °C 29.71in /  1006hPa Calm   1.0mph /  1.6km/h 83% 0.00in /  0mm 5.0 W/m2
19:29 66.2 °F /  19 °C 61.2 °F /  16.2 °C 29.72in /  1006.3hPa Calm     84% 0.00in /  0mm 9.0 W/m2
19:36 66.2 °F /  19 °C 60.8 °F /  16 °C 29.72in /  1006.3hPa Calm   2.0mph /  3.2km/h 83% 0.00in /  0mm 9.0 W/m2
19:42 66.0 °F /  18.9 °C 60.6 °F /  15.9 °C 29.72in /  1006.3hPa Calm   2.0mph /  3.2km/h 83% 0.00in /  0mm 0.0 W/m2
19:48 66.0 °F /  18.9 °C 60.6 °F /  15.9 °C 29.72in /  1006.3hPa Calm   1.0mph /  1.6km/h 83% 0.00in /  0mm 0.0 W/m2
19:54 66.0 °F /  18.9 °C 61.0 °F /  16.1 °C 29.72in /  1006.3hPa Calm     84% 0.00in /  0mm 0.0 W/m2
20:00 66.0 °F /  18.9 °C 61.0 °F /  16.1 °C 29.72in /  1006.3hPa Calm     84% 0.00in /  0mm 0.0 W/m2
20:06 66.0 °F /  18.9 °C 61.3 °F /  16.3 °C 29.72in /  1006.3hPa Calm     85% 0.00in /  0mm 0.0 W/m2
20:12 66.0 °F /  18.9 °C 61.3 °F /  16.3 °C 29.72in /  1006.3hPa Calm     85% 0.00in /  0mm 0.0 W/m2
20:18 66.0 °F /  18.9 °C 61.7 °F /  16.5 °C 29.72in /  1006.3hPa Calm     86% 0.00in /  0mm 0.0 W/m2
20:24 66.0 °F /  18.9 °C 61.7 °F /  16.5 °C 29.72in /  1006.3hPa Calm   1.0mph /  1.6km/h 86% 0.00in /  0mm 0.0 W/m2
20:31 66.0 °F /  18.9 °C 61.7 °F /  16.5 °C 29.73in /  1006.7hPa Calm     86% 0.00in /  0mm 0.0 W/m2
20:37 66.0 °F /  18.9 °C 61.7 °F /  16.5 °C 29.73in /  1006.7hPa Calm     86% 0.00in /  0mm 0.0 W/m2
20:43 66.0 °F /  18.9 °C 61.7 °F /  16.5 °C 29.73in /  1006.7hPa Calm     86% 0.00in /  0mm 0.0 W/m2
20:49 66.2 °F /  19 °C 61.9 °F /  16.6 °C 29.73in /  1006.7hPa Calm   1.0mph /  1.6km/h 86% 0.00in /  0mm 0.0 W/m2
20:55 66.2 °F /  19 °C 61.9 °F /  16.6 °C 29.73in /  1006.7hPa Calm   1.0mph /  1.6km/h 86% 0.00in /  0mm 0.0 W/m2
21:01 66.2 °F /  19 °C 61.9 °F /  16.6 °C 29.73in /  1006.7hPa Calm   1.0mph /  1.6km/h 86% 0.00in /  0mm 0.0 W/m2
21:07 66.2 °F /  19 °C 61.5 °F /  16.4 °C 29.73in /  1006.7hPa Calm   1.0mph /  1.6km/h 85% 0.00in /  0mm 0.0 W/m2
21:15 66.4 °F /  19.1 °C 61.7 °F /  16.5 °C 29.73in /  1006.7hPa Calm     85% 0.00in /  0mm 0.0 W/m2
21:24 66.4 °F /  19.1 °C 61.3 °F /  16.3 °C 29.74in /  1007hPa Calm     84% 0.00in /  0mm 0.0 W/m2
21:30 66.4 °F /  19.1 °C 61.0 °F /  16.1 °C 29.74in /  1007hPa SW 0.9mph /  1.4km/h 2.0mph /  3.2km/h 83% 0.00in /  0mm 0.0 W/m2
21:36 66.6 °F /  19.2 °C 61.2 °F /  16.2 °C 29.74in /  1007hPa WSW 0.9mph /  1.4km/h 2.0mph /  3.2km/h 83% 0.00in /  0mm 0.0 W/m2
21:42 66.6 °F /  19.2 °C 61.2 °F /  16.2 °C 29.74in /  1007hPa Calm   3.0mph /  4.8km/h 83% 0.00in /  0mm 0.0 W/m2
21:50 66.7 °F /  19.3 °C 60.8 °F /  16 °C 29.74in /  1007hPa Calm   2.0mph /  3.2km/h 81% 0.00in /  0mm 0.0 W/m2
21:57 66.9 °F /  19.4 °C 59.5 °F /  15.3 °C 29.74in /  1007hPa WSW 4.9mph /  7.9km/h 8.0mph /  12.9km/h 77% 0.00in /  0mm 0.0 W/m2
22:09 67.6 °F /  19.8 °C 59.4 °F /  15.2 °C 29.75in /  1007.3hPa WSW 0.9mph /  1.4km/h 5.0mph /  8km/h 75% 0.00in /  0mm 0.0 W/m2
22:15 67.6 °F /  19.8 °C 59.4 °F /  15.2 °C 29.74in /  1007hPa Calm   4.0mph /  6.4km/h 75% 0.00in /  0mm 0.0 W/m2
22:21 67.6 °F /  19.8 °C 59.4 °F /  15.2 °C 29.75in /  1007.3hPa Calm   2.0mph /  3.2km/h 75% 0.00in /  0mm 0.0 W/m2
22:27 67.6 °F /  19.8 °C 59.0 °F /  15 °C 29.75in /  1007.3hPa Calm   3.0mph /  4.8km/h 74% 0.00in /  0mm 0.0 W/m2
22:33 67.6 °F /  19.8 °C 59.4 °F /  15.2 °C 29.75in /  1007.3hPa Calm     75% 0.00in /  0mm 0.0 W/m2
22:39 67.6 °F /  19.8 °C 59.0 °F /  15 °C 29.75in /  1007.3hPa Calm   2.0mph /  3.2km/h 74% 0.00in /  0mm 0.0 W/m2
22:45 67.5 °F /  19.7 °C 59.2 °F /  15.1 °C 29.75in /  1007.3hPa Calm   1.0mph /  1.6km/h 75% 0.00in /  0mm 0.0 W/m2
22:52 67.5 °F /  19.7 °C 59.2 °F /  15.1 °C 29.75in /  1007.3hPa Calm     75% 0.00in /  0mm 0.0 W/m2
22:58 67.5 °F /  19.7 °C 59.2 °F /  15.1 °C 29.75in /  1007.3hPa Calm     75% 0.00in /  0mm 0.0 W/m2
23:04 67.5 °F /  19.7 °C 59.5 °F /  15.3 °C 29.75in /  1007.3hPa Calm     76% 0.00in /  0mm 0.0 W/m2
23:10 67.3 °F /  19.6 °C 59.5 °F /  15.3 °C 29.75in /  1007.3hPa Calm     76% 0.00in /  0mm 0.0 W/m2
23:16 67.3 °F /  19.6 °C 59.5 °F /  15.3 °C 29.75in /  1007.3hPa Calm   2.0mph /  3.2km/h 76% 0.00in /  0mm 0.0 W/m2
23:22 67.3 °F /  19.6 °C 59.5 °F /  15.3 °C 29.75in /  1007.3hPa Calm     76% 0.00in /  0mm 0.0 W/m2
23:28 67.3 °F /  19.6 °C 59.5 °F /  15.3 °C 29.75in /  1007.3hPa Calm     76% 0.00in /  0mm 0.0 W/m2
23:39 67.1 °F /  19.5 °C 58.8 °F /  14.9 °C 29.75in /  1007.3hPa Calm   2.0mph /  3.2km/h 75% 0.00in /  0mm 0.0 W/m2
23:44 67.1 °F /  19.5 °C 59.4 °F /  15.2 °C 29.75in /  1007.3hPa Calm   1.0mph /  1.6km/h 76% 0.00in /  0mm 0.0 W/m2
23:54 66.9 °F /  19.4 °C 59.2 °F /  15.1 °C 29.74in /  1007hPa WNW 0.9mph /  1.4km/h 2.0mph /  3.2km/h 76% 0.00in /  0mm 0.0 W/m2
Olympia, Windhoek, Namibia
Compliments of Weather Underground - 3 mb